VHHH/HKG METAR and TAF weather

Enter ICAO airport designator
Station Type Date Time Source
VHHH METAR 2019/09/20 20:00 UTC NOAA

VHHH 202000Z 36010KT CAVOK 28/13 Q1007 NOSIG


Station Type Date Time Source
VHHH Decoded METAR 2019/09/20 20:00 UTC NOAA

Hong Kong Inter-National Airport, Hong Kong (VHHH) 22-20N 114-11E 24M
Sep 20, 2019 - 04:00 PM EDT / 2019.09.20 2000 UTC
Wind: from the N (360 degrees) at 12 MPH (10 KT):0
Visibility: greater than 7 mile(s):0
Temperature: 82 F (28 C)
Dew Point: 55 F (13 C)
Relative Humidity: 39%
Pressure (altimeter): 29.74 in. Hg (1007 hPa)
ob: VHHH 202000Z 36010KT CAVOK 28/13 Q1007 NOSIG
cycle: 20

Station Type Date Time Source
VHHH TAF 2019/09/20 18:21 UTC NOAA

TAF VHHH 201700Z 2018/2124 02010KT CAVOK TX32/2106Z TN26/2022Z TN25/2122Z
TEMPO 2100/2112 32015KT
TEMPO 2121/2124 32015KT

Example: see airport list